createdAt,value
2022-08-28T00:01:01.873Z,3.40
2022-08-28T00:03:30.552Z,2.85
2022-08-28T00:05:57.181Z,3.10
2022-08-28T00:08:23.988Z,3.20
2022-08-28T00:10:52.593Z,3.28
2022-08-28T00:13:23.338Z,2.60
2022-08-28T00:15:58.211Z,3.00
2022-08-28T00:18:26.541Z,2.97
2022-08-28T00:20:53.987Z,2.85
2022-08-28T00:23:23.237Z,2.90
2022-08-28T00:25:49.938Z,2.88
2022-08-28T00:28:23.473Z,3.15
2022-08-28T00:30:56.362Z,2.60
2022-08-28T00:33:27.339Z,2.60
2022-08-28T00:35:55.071Z,3.08
2022-08-28T00:38:27.503Z,3.20
2022-08-28T00:40:58.377Z,2.88
2022-08-28T00:43:41.760Z,3.08
2022-08-28T00:46:12.098Z,3.03
2022-08-28T00:48:39.741Z,3.08
2022-08-28T00:51:27.766Z,3.30
2022-08-28T00:53:59.041Z,3.53
2022-08-28T00:56:28.270Z,3.60
2022-08-28T00:58:58.655Z,3.55
2022-08-28T01:01:25.627Z,4.18
2022-08-28T01:03:52.289Z,4.07
2022-08-28T01:06:24.335Z,4.07
2022-08-28T01:08:53.868Z,3.85
2022-08-28T01:11:21.197Z,4.03
2022-08-28T01:13:52.922Z,4.07
2022-08-28T01:16:23.091Z,3.72
2022-08-28T01:19:04.740Z,4.18
2022-08-28T01:21:47.187Z,4.03
2022-08-28T01:24:20.589Z,3.92
2022-08-28T01:26:47.333Z,4.35
2022-08-28T01:29:16.837Z,4.03
2022-08-28T01:31:45.395Z,3.75
2022-08-28T01:34:13.217Z,3.88
2022-08-28T01:36:41.381Z,3.83
2022-08-28T01:39:16.661Z,3.70
2022-08-28T01:41:47.544Z,3.80
2022-08-28T01:44:18.164Z,3.80
2022-08-28T01:46:47.574Z,4.05
2022-08-28T01:49:14.334Z,4.90
2022-08-28T01:51:42.598Z,4.68
2022-08-28T01:54:10.191Z,4.32
2022-08-28T01:56:39.072Z,4.40
2022-08-28T01:59:09.258Z,4.40
2022-08-28T02:01:36.511Z,4.50
2022-08-28T02:04:04.555Z,4.43
2022-08-28T02:06:31.784Z,4.45
2022-08-28T02:08:59.669Z,4.63
2022-08-28T02:11:29.473Z,4.25
2022-08-28T02:13:56.231Z,4.10
2022-08-28T02:16:23.547Z,4.38
2022-08-28T02:18:50.342Z,4.57
2022-08-28T02:21:17.368Z,5.18
2022-08-28T02:23:51.152Z,4.80
2022-08-28T02:26:20.931Z,5.40
2022-08-28T02:28:48.436Z,5.97
2022-08-28T02:31:18.887Z,6.95
2022-08-28T02:33:51.987Z,5.80
2022-08-28T02:36:18.652Z,6.00
2022-08-28T02:38:46.423Z,5.95
2022-08-28T02:41:15.417Z,5.40
2022-08-28T02:43:42.390Z,5.53
2022-08-28T02:46:09.486Z,5.55
2022-08-28T02:48:37.972Z,5.63
2022-08-28T02:51:10.553Z,5.30
2022-08-28T02:53:45.891Z,4.90
2022-08-28T02:56:13.684Z,4.88
2022-08-28T02:58:40.785Z,4.70
2022-08-28T03:01:11.128Z,5.18
2022-08-28T03:03:40.791Z,5.03
2022-08-28T03:06:14.827Z,5.45
2022-08-28T03:08:42.596Z,5.35
2022-08-28T03:11:09.473Z,4.80
2022-08-28T03:13:36.247Z,5.15
2022-08-28T03:16:04.776Z,5.15
2022-08-28T03:18:33.148Z,5.55
2022-08-28T03:21:02.105Z,5.45
2022-08-28T03:23:29.157Z,5.30
2022-08-28T03:26:09.657Z,5.85
2022-08-28T03:28:40.426Z,6.95
2022-08-28T03:31:09.459Z,6.18
2022-08-28T03:33:38.390Z,6.07
2022-08-28T03:36:10.397Z,5.18
2022-08-28T03:38:39.152Z,5.38
2022-08-28T03:41:11.628Z,4.95
2022-08-28T03:43:38.341Z,5.60
2022-08-28T03:46:06.226Z,5.57
2022-08-28T03:48:38.291Z,5.35
2022-08-28T03:51:14.851Z,5.32
2022-08-28T03:53:47.609Z,5.07
2022-08-28T03:56:19.032Z,4.90
2022-08-28T03:58:45.589Z,4.20
2022-08-28T04:01:12.378Z,4.40
2022-08-28T04:03:39.550Z,4.03
2022-08-28T04:06:06.747Z,4.38
2022-08-28T04:08:33.680Z,4.18
2022-08-28T04:11:01.014Z,4.32
2022-08-28T04:13:28.195Z,3.85
2022-08-28T04:16:06.390Z,4.25
2022-08-28T04:18:33.349Z,4.22
2022-08-28T04:21:08.105Z,4.93
2022-08-28T04:23:36.319Z,5.63
2022-08-28T04:26:06.342Z,4.82
2022-08-28T04:28:33.425Z,5.03
2022-08-28T04:31:00.491Z,5.10
2022-08-28T04:33:28.361Z,5.30
2022-08-28T04:36:03.343Z,5.60
2022-08-28T04:38:30.344Z,5.77
2022-08-28T04:40:56.975Z,6.57
2022-08-28T04:43:27.418Z,5.85
2022-08-28T04:45:54.071Z,6.28
2022-08-28T04:48:25.369Z,5.20
2022-08-28T04:50:53.625Z,6.07
2022-08-28T04:53:20.535Z,5.50
2022-08-28T04:55:55.074Z,5.85
2022-08-28T04:58:26.818Z,5.33
2022-08-28T05:00:54.410Z,6.25
2022-08-28T05:03:21.324Z,6.13
2022-08-28T05:05:51.997Z,5.15
2022-08-28T05:08:22.344Z,5.43
2022-08-28T05:10:50.878Z,5.10
2022-08-28T05:13:18.891Z,4.97
2022-08-28T05:15:48.287Z,4.70
2022-08-28T05:18:16.182Z,4.57
2022-08-28T05:20:46.143Z,4.00
2022-08-28T05:23:14.543Z,5.30
2022-08-28T05:25:45.461Z,5.28
2022-08-28T05:28:14.811Z,3.80
2022-08-28T05:30:45.984Z,4.10
2022-08-28T05:33:14.586Z,4.38
2022-08-28T05:35:47.529Z,4.40
2022-08-28T05:38:16.355Z,4.68
2022-08-28T05:40:45.939Z,4.45
2022-08-28T05:43:20.241Z,4.35
2022-08-28T05:45:57.901Z,3.90
2022-08-28T05:48:32.858Z,3.88
2022-08-28T05:51:05.150Z,3.95
2022-08-28T05:53:35.638Z,4.00
2022-08-28T05:56:05.418Z,3.60
2022-08-28T05:58:33.505Z,3.88
2022-08-28T06:01:11.401Z,3.63
2022-08-28T06:03:40.055Z,3.28
2022-08-28T06:06:09.909Z,3.78
2022-08-28T06:08:37.418Z,3.25
2022-08-28T06:11:05.304Z,3.95
2022-08-28T06:13:34.745Z,3.38
2022-08-28T06:16:03.050Z,3.55
2022-08-28T06:18:29.640Z,3.85
2022-08-28T06:20:56.207Z,3.97
2022-08-28T06:23:24.241Z,3.90
2022-08-28T06:25:52.004Z,4.10
2022-08-28T06:28:25.047Z,3.85
2022-08-28T06:31:23.771Z,4.10
2022-08-28T06:33:43.557Z,3.67
2022-08-28T06:36:11.342Z,3.55
2022-08-28T06:38:38.289Z,3.90
2022-08-28T06:41:09.351Z,3.75
2022-08-28T06:43:36.306Z,3.70
2022-08-28T06:46:04.226Z,3.75
2022-08-28T06:48:39.898Z,3.60
2022-08-28T06:51:17.764Z,3.72
2022-08-28T06:53:46.590Z,3.80
2022-08-28T06:56:26.856Z,3.88
2022-08-28T06:58:56.201Z,3.95
2022-08-28T07:01:30.705Z,4.20
2022-08-28T07:04:04.122Z,4.05
2022-08-28T07:06:34.509Z,3.70
2022-08-28T07:09:01.689Z,3.22
2022-08-28T07:11:31.437Z,3.70
2022-08-28T07:13:58.883Z,3.65
2022-08-28T07:16:33.892Z,3.75
2022-08-28T07:19:04.365Z,3.50
2022-08-28T07:21:38.923Z,3.58
2022-08-28T07:24:12.642Z,3.53
2022-08-28T07:26:41.167Z,3.58
2022-08-28T07:29:10.846Z,3.83
2022-08-28T07:31:42.572Z,3.67
2022-08-28T07:34:11.505Z,4.00
2022-08-28T07:36:38.725Z,3.97
2022-08-28T07:39:10.357Z,4.82
2022-08-28T07:41:40.394Z,5.10
2022-08-28T07:44:28.592Z,5.25
2022-08-28T07:46:57.668Z,4.60
2022-08-28T07:49:24.811Z,5.07
2022-08-28T07:51:54.093Z,4.80
2022-08-28T07:54:23.449Z,5.10
2022-08-28T07:56:52.726Z,4.93
2022-08-28T07:59:20.395Z,5.85
2022-08-28T08:01:50.906Z,5.32
2022-08-28T08:04:20.016Z,5.43
2022-08-28T08:06:47.037Z,5.30
2022-08-28T08:09:19.685Z,6.05
2022-08-28T08:11:49.113Z,6.38
2022-08-28T08:14:17.064Z,5.43
2022-08-28T08:16:46.093Z,5.40
2022-08-28T08:19:16.542Z,5.88
2022-08-28T08:21:53.218Z,5.80
2022-08-28T08:24:25.786Z,5.50
2022-08-28T08:27:00.225Z,5.35
2022-08-28T08:29:29.921Z,5.57
2022-08-28T08:32:04.416Z,6.45
2022-08-28T08:34:32.519Z,5.50
2022-08-28T08:36:59.171Z,5.30
2022-08-28T08:39:26.151Z,6.03
2022-08-28T08:41:57.868Z,5.50
2022-08-28T08:44:37.630Z,5.72
2022-08-28T08:47:15.748Z,5.18
2022-08-28T08:50:00.319Z,5.00
2022-08-28T08:52:34.687Z,5.13
2022-08-28T08:55:05.268Z,5.05
2022-08-28T08:57:34.996Z,5.55
2022-08-28T09:00:05.834Z,5.10
2022-08-28T09:02:39.614Z,5.03
2022-08-28T09:05:13.408Z,5.63
2022-08-28T09:08:03.166Z,5.68
2022-08-28T09:10:42.219Z,5.13
2022-08-28T09:13:28.297Z,4.95
2022-08-28T09:18:26.103Z,5.28
2022-08-28T09:20:55.907Z,5.03
2022-08-28T09:23:24.256Z,5.60
2022-08-28T09:25:59.803Z,4.65
2022-08-28T09:28:40.798Z,5.32
2022-08-28T09:31:33.404Z,4.45
2022-08-28T09:34:36.754Z,4.60
2022-08-28T09:37:10.427Z,4.28
2022-08-28T09:39:40.759Z,4.47
2022-08-28T09:42:38.153Z,4.22
2022-08-28T09:45:21.301Z,4.03
2022-08-28T09:47:49.586Z,3.90
2022-08-28T09:50:35.461Z,4.80
2022-08-28T09:53:15.668Z,4.70
2022-08-28T09:56:11.164Z,4.25
2022-08-28T09:58:47.217Z,4.07
2022-08-28T10:01:45.102Z,4.40
2022-08-28T10:04:54.819Z,4.13
2022-08-28T10:07:49.324Z,4.43
2022-08-28T10:10:32.460Z,3.85
2022-08-28T10:13:20.226Z,3.85
2022-08-28T10:15:59.524Z,3.95
2022-08-28T10:18:55.136Z,4.20
2022-08-28T10:21:43.473Z,3.80
2022-08-28T10:24:24.736Z,3.88
2022-08-28T10:27:17.532Z,3.95
2022-08-28T10:30:12.482Z,4.15
2022-08-28T10:33:16.509Z,3.80
2022-08-28T10:36:01.355Z,3.65
2022-08-28T10:39:11.751Z,3.22
2022-08-28T10:41:46.746Z,3.38
2022-08-28T10:44:23.478Z,3.20
2022-08-28T10:46:55.642Z,3.53
2022-08-28T10:49:37.268Z,2.97
2022-08-28T10:52:10.462Z,3.00
2022-08-28T10:54:46.201Z,3.08
2022-08-28T10:57:31.132Z,3.20
2022-08-28T11:00:02.169Z,3.20
2022-08-28T11:02:30.315Z,3.10
2022-08-28T11:04:58.656Z,3.00
2022-08-28T11:07:34.883Z,3.05
2022-08-28T11:10:28.995Z,3.33
2022-08-28T11:13:02.869Z,3.03
2022-08-28T11:15:36.751Z,2.70
2022-08-28T11:18:21.319Z,3.20
2022-08-28T11:21:18.774Z,3.22
2022-08-28T11:23:56.326Z,3.00
2022-08-28T11:26:52.337Z,3.30
2022-08-28T11:29:56.388Z,3.38
2022-08-28T11:32:31.713Z,2.85
2022-08-28T11:35:14.558Z,3.10
2022-08-28T11:37:44.689Z,2.80
2022-08-28T11:40:21.633Z,2.80
2022-08-28T11:42:51.260Z,2.55
2022-08-28T11:45:40.322Z,2.58
2022-08-28T11:48:29.910Z,2.50
2022-08-28T11:51:02.476Z,2.80
2022-08-28T11:54:17.071Z,3.20
2022-08-28T11:57:06.781Z,2.50
2022-08-28T11:59:50.502Z,2.72
2022-08-28T12:02:32.064Z,2.72
2022-08-28T12:04:58.923Z,2.72
2022-08-28T12:07:39.310Z,2.60
2022-08-28T12:10:27.605Z,2.30
2022-08-28T12:12:58.722Z,2.80
2022-08-28T12:15:28.267Z,2.35
2022-08-28T12:18:13.700Z,2.45
2022-08-28T12:21:07.354Z,2.55
2022-08-28T12:23:45.134Z,2.67
2022-08-28T12:26:36.119Z,2.58
2022-08-28T12:29:27.137Z,2.65
2022-08-28T12:32:38.684Z,2.60
2022-08-28T12:35:15.321Z,2.47
2022-08-28T12:37:52.131Z,2.63
2022-08-28T12:40:29.186Z,2.70
2022-08-28T12:42:59.111Z,3.00
2022-08-28T12:45:28.471Z,2.47
2022-08-28T12:48:02.198Z,2.63
2022-08-28T12:50:38.266Z,2.67
2022-08-28T12:53:14.378Z,2.33
2022-08-28T12:55:41.301Z,2.38
2022-08-28T12:58:32.704Z,2.80
2022-08-28T13:01:07.010Z,2.70
2022-08-28T13:03:37.245Z,2.60
2022-08-28T13:06:07.654Z,2.13
2022-08-28T13:08:36.736Z,2.15
2022-08-28T13:11:04.582Z,2.35
2022-08-28T13:13:38.654Z,2.78
2022-08-28T13:16:12.216Z,2.55
2022-08-28T13:18:50.455Z,2.60
2022-08-28T13:21:31.723Z,2.40
2022-08-28T13:24:24.289Z,2.30
2022-08-28T13:27:01.441Z,2.28
2022-08-28T13:29:28.437Z,2.20
2022-08-28T13:32:01.668Z,2.10
2022-08-28T13:34:32.601Z,2.20
2022-08-28T13:37:20.009Z,2.30
2022-08-28T13:39:47.594Z,2.28
2022-08-28T13:42:17.980Z,1.92
2022-08-28T13:44:57.088Z,2.30
2022-08-28T13:47:23.647Z,2.00
2022-08-28T13:49:50.192Z,2.30
2022-08-28T13:52:25.444Z,1.88
2022-08-28T13:54:52.734Z,2.33
2022-08-28T13:57:19.340Z,2.30
2022-08-28T13:59:46.024Z,2.13
2022-08-28T14:02:33.348Z,2.00
2022-08-28T14:05:05.162Z,2.10
2022-08-28T14:07:31.811Z,1.77
2022-08-28T14:09:58.880Z,1.80
2022-08-28T14:12:32.731Z,1.83
2022-08-28T14:14:59.826Z,2.20
2022-08-28T14:17:26.406Z,1.90
2022-08-28T14:19:54.712Z,1.90
2022-08-28T14:22:21.294Z,1.60
2022-08-28T14:24:47.849Z,1.65
2022-08-28T14:27:16.249Z,1.55
2022-08-28T14:29:44.858Z,1.77
2022-08-28T14:32:11.531Z,2.38
2022-08-28T14:34:40.146Z,1.88
2022-08-28T14:37:06.880Z,1.80
2022-08-28T14:39:33.697Z,2.00
2022-08-28T14:42:03.480Z,1.58
2022-08-28T14:44:30.751Z,1.75
2022-08-28T14:46:57.572Z,1.80
2022-08-28T14:49:24.697Z,1.85
2022-08-28T14:51:52.847Z,2.28
2022-08-28T14:54:21.793Z,2.05
2022-08-28T14:56:52.714Z,1.80
2022-08-28T14:59:26.432Z,2.25
2022-08-28T15:01:57.468Z,1.80
2022-08-28T15:07:19.761Z,2.00
2022-08-28T15:09:46.333Z,2.03
2022-08-28T15:12:14.567Z,2.00
2022-08-28T15:14:55.092Z,1.70
2022-08-28T15:17:34.593Z,2.10
2022-08-28T15:20:03.422Z,2.00
2022-08-28T15:22:32.205Z,2.25
2022-08-28T15:24:58.800Z,2.30
2022-08-28T15:27:27.309Z,2.15
2022-08-28T15:29:53.968Z,2.08
2022-08-28T15:32:20.898Z,2.10
2022-08-28T15:34:47.604Z,1.63
2022-08-28T15:37:14.133Z,1.80
2022-08-28T15:40:01.645Z,2.42
2022-08-28T15:42:30.136Z,2.53
2022-08-28T15:44:57.069Z,2.30
2022-08-28T15:47:26.708Z,1.95
2022-08-28T15:49:55.964Z,2.10
2022-08-28T15:52:24.569Z,2.38
2022-08-28T15:54:55.771Z,2.10
2022-08-28T15:57:22.529Z,2.28
2022-08-28T15:59:50.785Z,1.80
2022-08-28T16:02:25.574Z,2.08
2022-08-28T16:04:54.105Z,2.00
2022-08-28T16:07:22.156Z,2.00
2022-08-28T16:09:49.481Z,2.08
2022-08-28T16:12:16.482Z,1.90
2022-08-28T16:14:45.155Z,2.20
2022-08-28T16:17:13.851Z,1.90
2022-08-28T16:19:41.029Z,1.90
2022-08-28T16:22:09.325Z,1.67
2022-08-28T16:24:37.026Z,1.77
2022-08-28T16:27:10.729Z,1.90
2022-08-28T16:29:43.187Z,2.05
2022-08-28T16:32:11.651Z,2.13
2022-08-28T16:34:38.764Z,1.98
2022-08-28T16:37:18.571Z,1.70
2022-08-28T16:39:47.396Z,1.80
2022-08-28T16:42:18.290Z,2.03
2022-08-28T16:44:44.826Z,2.03
2022-08-28T16:47:13.237Z,2.00
2022-08-28T16:49:41.625Z,2.05
2022-08-28T16:52:08.212Z,1.80
2022-08-28T16:54:37.091Z,2.17
2022-08-28T16:57:11.841Z,2.20
2022-08-28T16:59:42.141Z,2.10
2022-08-28T17:02:08.868Z,2.10
2022-08-28T17:04:41.819Z,2.20
2022-08-28T17:07:08.509Z,2.33
2022-08-28T17:09:35.195Z,2.13
2022-08-28T17:12:04.291Z,2.40
2022-08-28T17:14:31.225Z,2.10
2022-08-28T17:16:58.057Z,2.30
2022-08-28T17:19:25.402Z,2.60
2022-08-28T17:22:10.818Z,2.50
2022-08-28T17:24:39.231Z,2.70
2022-08-28T17:27:06.942Z,2.30
2022-08-28T17:29:36.492Z,2.35
2022-08-28T17:32:05.458Z,2.42
2022-08-28T17:34:34.325Z,2.28
2022-08-28T17:37:01.257Z,2.35
2022-08-28T17:39:28.502Z,2.65
2022-08-28T17:41:55.287Z,3.00
2022-08-28T17:44:21.804Z,2.67
2022-08-28T17:46:53.838Z,3.00
2022-08-28T17:49:20.473Z,2.30
2022-08-28T17:51:47.004Z,2.50
2022-08-28T17:54:17.630Z,2.60
2022-08-28T17:56:46.639Z,2.70
2022-08-28T17:59:14.162Z,2.97
2022-08-28T18:01:42.468Z,2.38
2022-08-28T18:04:09.279Z,3.00
2022-08-28T18:06:36.151Z,2.60
2022-08-28T18:09:04.633Z,2.38
2022-08-28T18:11:31.305Z,2.20
2022-08-28T18:13:59.794Z,2.50
2022-08-28T18:16:31.167Z,2.50
2022-08-28T18:19:01.124Z,2.50
2022-08-28T18:21:29.493Z,2.65
2022-08-28T18:23:56.764Z,2.42
2022-08-28T18:26:23.579Z,2.42
2022-08-28T18:28:52.749Z,2.50
2022-08-28T18:31:19.920Z,2.85
2022-08-28T18:33:46.657Z,2.30
2022-08-28T18:36:17.796Z,2.38
2022-08-28T18:38:44.570Z,2.97
2022-08-28T18:41:12.116Z,2.63
2022-08-28T18:43:39.222Z,2.75
2022-08-28T18:46:09.238Z,2.85
2022-08-28T18:48:40.205Z,2.88
2022-08-28T18:51:08.661Z,2.90
2022-08-28T18:53:36.035Z,2.75
2022-08-28T18:56:04.502Z,2.97
2022-08-28T18:58:33.610Z,2.85
2022-08-28T19:01:01.397Z,2.85
2022-08-28T19:03:28.463Z,2.97
2022-08-28T19:05:56.389Z,2.70
2022-08-28T19:08:26.162Z,2.95
2022-08-28T19:10:54.117Z,2.90
2022-08-28T19:13:27.342Z,2.83
2022-08-28T19:15:54.191Z,2.90
2022-08-28T19:18:21.014Z,3.10
2022-08-28T19:20:50.328Z,3.20
2022-08-28T19:23:17.880Z,2.92
2022-08-28T19:25:45.712Z,2.92
2022-08-28T19:28:12.693Z,2.90
2022-08-28T19:30:39.421Z,3.13
2022-08-28T19:33:06.219Z,3.20
2022-08-28T19:35:33.929Z,2.95
2022-08-28T19:38:04.632Z,3.15
2022-08-28T19:40:31.755Z,3.08
2022-08-28T19:43:00.658Z,3.38
2022-08-28T19:45:27.776Z,3.50
2022-08-28T19:47:54.299Z,2.85
2022-08-28T19:50:30.723Z,3.10
2022-08-28T19:53:00.670Z,2.97
2022-08-28T19:55:27.891Z,3.30
2022-08-28T19:57:54.970Z,2.90
2022-08-28T20:00:25.411Z,3.70
2022-08-28T20:02:52.613Z,3.70
2022-08-28T20:05:22.266Z,3.40
2022-08-28T20:07:49.001Z,3.58
2022-08-28T20:10:16.292Z,3.53
2022-08-28T20:12:48.101Z,3.35
2022-08-28T20:15:17.584Z,3.80
2022-08-28T20:17:50.179Z,3.67
2022-08-28T20:20:21.081Z,3.55
2022-08-28T20:22:53.939Z,3.60
2022-08-28T20:25:21.442Z,3.50
2022-08-28T20:27:49.789Z,4.00
2022-08-28T20:30:16.682Z,3.15
2022-08-28T20:32:43.266Z,3.20
2022-08-28T20:35:14.122Z,3.42
2022-08-28T20:37:45.667Z,3.03
2022-08-28T20:40:20.714Z,3.40
2022-08-28T20:42:48.104Z,3.50
2022-08-28T20:45:17.919Z,3.50
2022-08-28T20:47:46.054Z,3.25
2022-08-28T20:50:14.126Z,3.30
2022-08-28T20:52:40.811Z,3.17
2022-08-28T20:55:08.548Z,3.42
2022-08-28T20:57:36.959Z,3.63
2022-08-28T21:00:07.864Z,3.55
2022-08-28T21:02:34.499Z,3.60
2022-08-28T21:05:01.366Z,3.13
2022-08-28T21:07:28.557Z,3.45
2022-08-28T21:10:08.017Z,3.60
2022-08-28T21:12:39.185Z,3.50
2022-08-28T21:15:08.471Z,3.05
2022-08-28T21:17:41.584Z,3.22
2022-08-28T21:20:12.547Z,3.50
2022-08-28T21:22:40.285Z,3.80
2022-08-28T21:25:11.227Z,3.53
2022-08-28T21:27:40.209Z,3.10
2022-08-28T21:30:09.013Z,3.35
2022-08-28T21:32:38.268Z,3.42
2022-08-28T21:35:07.082Z,3.40
2022-08-28T21:37:34.835Z,3.05
2022-08-28T21:40:06.455Z,3.17
2022-08-28T21:42:33.107Z,3.55
2022-08-28T21:44:59.874Z,3.33
2022-08-28T21:47:28.276Z,3.33
2022-08-28T21:49:56.489Z,3.20
2022-08-28T21:52:26.535Z,3.10
2022-08-28T21:55:02.231Z,3.25
2022-08-28T21:59:56.394Z,3.00
2022-08-28T22:02:23.474Z,2.50
2022-08-28T22:04:50.216Z,3.03
2022-08-28T22:07:17.468Z,2.83
2022-08-28T22:09:51.884Z,3.30
2022-08-28T22:12:18.669Z,3.00
2022-08-28T22:14:45.216Z,3.00
2022-08-28T22:17:13.733Z,3.20
2022-08-28T22:19:40.873Z,3.22
2022-08-28T22:22:29.083Z,2.95
2022-08-28T22:24:58.068Z,3.10
2022-08-28T22:27:24.677Z,3.17
2022-08-28T22:29:51.392Z,3.50
2022-08-28T22:32:18.339Z,3.50
2022-08-28T22:34:46.476Z,3.10
2022-08-28T22:37:17.912Z,3.60
2022-08-28T22:39:44.468Z,3.50
2022-08-28T22:42:11.084Z,3.40
2022-08-28T22:44:41.431Z,3.20
2022-08-28T22:47:08.044Z,3.15
2022-08-28T22:49:36.038Z,3.38
2022-08-28T22:52:08.350Z,3.60
2022-08-28T22:54:35.065Z,3.05
2022-08-28T22:57:01.917Z,3.63
2022-08-28T22:59:28.645Z,3.65
2022-08-28T23:01:55.533Z,3.65
2022-08-28T23:04:22.165Z,3.92
2022-08-28T23:06:51.643Z,3.50
2022-08-28T23:09:20.360Z,3.40
2022-08-28T23:11:47.087Z,3.50
2022-08-28T23:14:15.422Z,3.40
2022-08-28T23:16:44.196Z,3.53
2022-08-28T23:19:13.626Z,3.30
2022-08-28T23:21:44.219Z,3.05
2022-08-28T23:24:16.108Z,3.35
2022-08-28T23:26:46.147Z,3.10
2022-08-28T23:29:15.199Z,3.45
2022-08-28T23:31:41.813Z,2.85
2022-08-28T23:34:09.184Z,3.45
2022-08-28T23:36:36.787Z,3.60
2022-08-28T23:39:06.012Z,3.20
2022-08-28T23:41:33.684Z,3.20
2022-08-28T23:44:01.688Z,3.50
2022-08-28T23:46:30.803Z,2.90
2022-08-28T23:48:57.581Z,3.35
2022-08-28T23:51:24.183Z,3.20
2022-08-28T23:53:52.184Z,3.50
2022-08-28T23:56:18.881Z,3.10
2022-08-28T23:58:45.677Z,3.30
